METAR-Meldungen aus der Umgebung


Warning: A non-numeric value encountered in /homepages/1/d50633195/htdocs/bad-muskau-wetter/weather28/metar/metarDisplay.php on line 168

Warning: A non-numeric value encountered in /homepages/1/d50633195/htdocs/bad-muskau-wetter/weather28/metar/metarDisplay.php on line 168

Warning: A non-numeric value encountered in /homepages/1/d50633195/htdocs/bad-muskau-wetter/weather28/metar/metarDisplay.php on line 168

Warning: A non-numeric value encountered in /homepages/1/d50633195/htdocs/bad-muskau-wetter/weather28/metar/metarDisplay.php on line 168

Warning: A non-numeric value encountered in /homepages/1/d50633195/htdocs/bad-muskau-wetter/weather28/metar/metarDisplay.php on line 168

Warning: A non-numeric value encountered in /homepages/1/d50633195/htdocs/bad-muskau-wetter/weather28/metar/metarDisplay.php on line 168

Warning: A non-numeric value encountered in /homepages/1/d50633195/htdocs/bad-muskau-wetter/weather28/metar/metarDisplay.php on line 168
   
EDDC - Dresden/Klotzsch, Germany
Entfernung von der Station bis: SW 82 km
Aktualisierung: 15-07-2020 05:50
Klar  
Klar  
   Wind: WSW 9.3 km/h
Wind: WSW 9.3 km/h
Temperatur: 16°C
Taupunkt: 11°C
Luftfeuchte: 72%
Luftdruck: 1011 hPa
Sichtbarkeit: More than 10 km
Bewölkung: Klar
EDDC 150350Z 25005KT CAVOK 16/11 Q1011 NOSIG
EPZG - Zielona Gora, Poland
Entfernung von der Station bis: NO 99 km
Aktualisierung: 15-07-2020 06:00
Klar  
Klar  
   Wind: NO 1.9 km/h
Wind: NO 1.9 km/h
Temperatur: 13°C
Taupunkt: 10°C
Luftfeuchte: 82%
Luftdruck: 1011 hPa
Sichtbarkeit: More than 10 km
Bewölkung: Klar
EPZG 150400Z 05001KT CAVOK 13/10 Q1011
ETSH - Holzdorf, Germany
Entfernung von der Station bis: WNW 110 km
Aktualisierung: 15-07-2020 05:20
Stark bewölkt  
Stark bewölkt  
   Wind: Norden 7.4 km/h
Wind: Norden 7.4 km/h
Temperatur: 16°C
Taupunkt: 12°C
Luftfeuchte: 77%
Luftdruck: 1011 hPa
Bewölkt: Stark bewölkt
Sichtbarkeit: More than 10 km
Bewölkung: Teilweise bewölkt 9000 ft,
Stark bewölkt 12000 ft
ETSH 150320Z 01004KT 9999 SCT090 BKN120 16/12 Q1011 BLU BLU TEMPO WHT
EDDB - Berlin/Schonefel, Germany
Entfernung von der Station bis: NW 124 km
Aktualisierung: 15-07-2020 05:50
Klar  
Klar  
   Wind: Norden 11.1 km/h
Wind: Norden 11.1 km/h
Temperatur: 17°C
Taupunkt: 12°C
Luftfeuchte: 73%
Luftdruck: 1011 hPa
Sichtbarkeit: More than 10 km
Bewölkung: Klar
EDDB 150350Z 36006KT 330V030 CAVOK 17/12 Q1011 NOSIG
EDDT - Berlin/Tegel (fa, Germany
Entfernung von der Station bis: NW 149 km
Aktualisierung: 15-07-2020 05:50
Klar  
Klar  
   Wind: variiert 3.7 km/h
Wind: variiert 3.7 km/h
Temperatur: 16°C
Taupunkt: 13°C
Luftfeuchte: 83%
Luftdruck: 1011 hPa
Sichtbarkeit: More than 10 km
Bewölkung: Klar
EDDT 150350Z VRB02KT CAVOK 16/13 Q1011 NOSIG
LKVO - Vodochody, Czech Republic
Entfernung von der Station bis: S 149 km
Aktualisierung: 14-07-2020 21:00
Nicht aktuell
Klar  
Klar  
   Wind: OSO 11.1 km/h
Wind: OSO 11.1 km/h
Temperatur: 20°C
Taupunkt: 8°C
Luftfeuchte: 46%
Luftdruck: 1013 hPa
Sichtbarkeit: More than 10 km
Bewölkung: Klar
LKVO 141900Z 11006KT CAVOK 20/08 Q1013
EPWR - Wroclaw/Strachow, Poland
Entfernung von der Station bis: OSO 157 km
Aktualisierung: 15-07-2020 06:00
Klar  
Klar  
   Wind: OSO 9.3 km/h
Wind: OSO 9.3 km/h
Temperatur: 12°C
Taupunkt: 10°C
Luftfeuchte: 88%
Luftdruck: 1013 hPa
Sichtbarkeit: More than 10 km
Bewölkung: Klar
EPWR 150400Z 12005KT CAVOK 12/10 Q1013
LKKB - Kbely, Czech Republic
Entfernung von der Station bis: S 159 km
Aktualisierung: 15-07-2020 06:00
Klar  
Klar  
   Wind: NO 3.7 km/h
Wind: NO 3.7 km/h
Temperatur: 13°C
Taupunkt: 9°C
Luftfeuchte: 77%
Luftdruck: 1012 hPa
Sichtbarkeit: More than 10 km
Bewölkung: Klar
LKKB 150400Z 05002KT CAVOK 13/09 Q1012
 

Script entwickelt von  Saratoga-weather.org Angepasst für das Template von  Weerstation Leuven